createdAt,value
2023-11-19T00:00:12.951Z,101107.50
2023-11-19T00:02:42.637Z,101102.25
2023-11-19T00:05:12.543Z,101080.97
2023-11-19T00:07:42.224Z,101075.44
2023-11-19T00:10:11.139Z,101066.00
2023-11-19T00:12:39.698Z,101061.31
2023-11-19T00:15:12.286Z,101063.72
2023-11-19T00:17:41.642Z,101059.88
2023-11-19T00:20:11.458Z,101050.16
2023-11-19T00:22:49.057Z,101048.34
2023-11-19T00:25:17.401Z,101046.88
2023-11-19T00:27:45.852Z,101040.03
2023-11-19T00:30:14.850Z,101031.03
2023-11-19T00:32:42.621Z,101033.50
2023-11-19T00:35:12.162Z,101020.91
2023-11-19T00:37:39.833Z,101017.06
2023-11-19T00:40:09.146Z,101015.03
2023-11-19T00:42:36.771Z,101011.84
2023-11-19T00:45:05.487Z,100990.50
2023-11-19T00:47:33.047Z,100989.41
2023-11-19T00:50:00.628Z,100974.13
2023-11-19T00:52:29.507Z,100967.53
2023-11-19T00:54:57.946Z,100969.66
2023-11-19T00:57:27.629Z,100958.84
2023-11-19T00:59:55.097Z,100951.69
2023-11-19T01:02:22.657Z,100936.41
2023-11-19T01:04:50.143Z,100938.84
2023-11-19T01:07:17.668Z,100938.91
2023-11-19T01:09:46.454Z,100929.53
2023-11-19T01:12:14.021Z,100908.63
2023-11-19T01:14:41.471Z,100891.19
2023-11-19T01:17:10.256Z,100877.88
2023-11-19T01:19:37.769Z,100874.22
2023-11-19T01:22:04.558Z,100881.72
2023-11-19T01:24:32.548Z,100863.91
2023-11-19T01:27:01.917Z,100864.81
2023-11-19T01:29:29.362Z,100872.97
2023-11-19T01:31:56.862Z,100866.50
2023-11-19T01:34:24.520Z,100858.50
2023-11-19T01:36:52.123Z,100850.31
2023-11-19T01:39:21.074Z,100849.59
2023-11-19T01:41:48.651Z,100827.44
2023-11-19T01:44:17.451Z,100817.69
2023-11-19T01:46:48.569Z,100811.41
2023-11-19T01:49:17.932Z,100802.63
2023-11-19T01:51:45.631Z,100803.09
2023-11-19T01:54:13.932Z,100795.56
2023-11-19T01:56:42.636Z,100785.50
2023-11-19T01:59:14.108Z,100797.56
2023-11-19T02:01:43.786Z,100782.63
2023-11-19T02:04:12.093Z,100781.41
2023-11-19T02:06:42.710Z,100767.34
2023-11-19T02:09:10.729Z,100744.63
2023-11-19T02:11:38.327Z,100724.34
2023-11-19T02:14:06.137Z,100705.66
2023-11-19T02:16:33.806Z,100700.38
2023-11-19T02:19:02.780Z,100696.94
2023-11-19T02:21:30.719Z,100689.66
2023-11-19T02:24:08.702Z,100683.69
2023-11-19T02:26:41.902Z,100688.81
2023-11-19T02:29:10.949Z,100686.69
2023-11-19T02:31:38.548Z,100679.78
2023-11-19T02:34:07.032Z,100676.88
2023-11-19T02:36:34.608Z,100668.31
2023-11-19T02:39:02.081Z,100653.66
2023-11-19T02:41:30.405Z,100646.09
2023-11-19T02:43:58.150Z,100643.69
2023-11-19T02:46:27.513Z,100650.94
2023-11-19T02:48:55.057Z,100643.28
2023-11-19T02:51:23.104Z,100631.09
2023-11-19T02:53:50.606Z,100626.03
2023-11-19T02:56:21.630Z,100607.34
2023-11-19T02:58:50.427Z,100594.91
2023-11-19T03:01:30.478Z,100589.56
2023-11-19T03:04:00.257Z,100589.91
2023-11-19T03:06:28.550Z,100581.34
2023-11-19T03:08:56.597Z,100584.19
2023-11-19T03:11:24.317Z,100597.00
2023-11-19T03:13:51.823Z,100599.72
2023-11-19T03:16:19.445Z,100591.84
2023-11-19T03:18:47.038Z,100590.06
2023-11-19T03:21:15.876Z,100602.25
2023-11-19T03:23:44.521Z,100602.16
2023-11-19T03:26:12.677Z,100594.63
2023-11-19T03:28:40.166Z,100589.16
2023-11-19T03:31:09.453Z,100576.41
2023-11-19T03:33:38.775Z,100564.75
2023-11-19T03:36:07.109Z,100547.25
2023-11-19T03:38:36.320Z,100541.00
2023-11-19T03:41:04.017Z,100528.13
2023-11-19T03:43:34.544Z,100527.13
2023-11-19T03:46:02.160Z,100521.94
2023-11-19T03:48:29.655Z,100521.03
2023-11-19T03:50:57.126Z,100522.00
2023-11-19T03:53:25.442Z,100501.44
2023-11-19T03:55:54.230Z,100506.88
2023-11-19T03:58:21.689Z,100491.59
2023-11-19T04:00:49.410Z,100463.84
2023-11-19T04:03:16.820Z,100465.34
2023-11-19T04:05:44.307Z,100467.53
2023-11-19T04:08:11.813Z,100455.72
2023-11-19T04:10:39.473Z,100466.41
2023-11-19T04:13:08.366Z,100457.00
2023-11-19T04:15:35.949Z,100434.28
2023-11-19T04:18:04.067Z,100423.34
2023-11-19T04:20:32.750Z,100425.06
2023-11-19T04:23:01.716Z,100419.69
2023-11-19T04:25:29.891Z,100412.97
2023-11-19T04:27:57.392Z,100411.19
2023-11-19T04:30:26.442Z,100414.59
2023-11-19T04:32:53.880Z,100415.88
2023-11-19T04:35:21.437Z,100408.75
2023-11-19T04:37:49.351Z,100417.25
2023-11-19T04:40:19.262Z,100417.31
2023-11-19T04:42:46.842Z,100416.59
2023-11-19T04:45:14.453Z,100408.84
2023-11-19T04:47:43.312Z,100396.75
2023-11-19T04:50:11.945Z,100395.03
2023-11-19T04:52:41.278Z,100390.72
2023-11-19T04:55:10.698Z,100391.63
2023-11-19T04:57:38.176Z,100382.22
2023-11-19T05:00:17.085Z,100378.75
2023-11-19T05:02:46.578Z,100363.16
2023-11-19T05:05:14.665Z,100366.66
2023-11-19T05:07:42.247Z,100344.28
2023-11-19T05:10:10.629Z,100337.50
2023-11-19T05:12:38.151Z,100335.69
2023-11-19T05:15:06.538Z,100322.03
2023-11-19T05:17:34.145Z,100310.59
2023-11-19T05:20:03.538Z,100304.75
2023-11-19T05:22:31.131Z,100304.59
2023-11-19T05:24:58.644Z,100309.91
2023-11-19T05:27:28.011Z,100306.53
2023-11-19T05:29:55.492Z,100303.16
2023-11-19T05:32:22.961Z,100291.97
2023-11-19T05:34:53.074Z,100286.84
2023-11-19T05:37:21.951Z,100297.13
2023-11-19T05:39:49.600Z,100286.78
2023-11-19T05:42:17.076Z,100261.00
2023-11-19T05:44:44.540Z,100257.63
2023-11-19T05:47:12.537Z,100250.69
2023-11-19T05:49:40.031Z,100236.16
2023-11-19T05:52:08.877Z,100249.03
2023-11-19T05:54:39.077Z,100252.34
2023-11-19T05:57:07.631Z,100234.97
2023-11-19T05:59:35.141Z,100236.56
2023-11-19T06:02:03.408Z,100224.09
2023-11-19T06:04:30.999Z,100234.38
2023-11-19T06:06:58.501Z,100232.72
2023-11-19T06:09:26.021Z,100232.72
2023-11-19T06:11:56.521Z,100232.47
2023-11-19T06:14:25.381Z,100216.38
2023-11-19T06:16:52.975Z,100210.38
2023-11-19T06:19:20.720Z,100205.19
2023-11-19T06:21:48.188Z,100196.66
2023-11-19T06:24:16.015Z,100200.91
2023-11-19T06:26:43.511Z,100201.78
2023-11-19T06:29:12.376Z,100193.19
2023-11-19T06:31:42.723Z,100181.16
2023-11-19T06:34:10.235Z,100179.97
2023-11-19T06:36:37.850Z,100169.16
2023-11-19T06:39:06.961Z,100169.13
2023-11-19T06:41:34.413Z,100157.97
2023-11-19T06:44:01.939Z,100175.84
2023-11-19T06:46:30.771Z,100181.03
2023-11-19T06:48:58.285Z,100180.22
2023-11-19T06:51:26.122Z,100165.72
2023-11-19T06:53:53.586Z,100172.56
2023-11-19T06:56:22.603Z,100187.97
2023-11-19T06:58:50.372Z,100186.84
2023-11-19T07:01:19.335Z,100174.94
2023-11-19T07:03:48.787Z,100160.56
2023-11-19T07:06:16.814Z,100167.41
2023-11-19T07:08:45.839Z,100155.38
2023-11-19T07:11:13.508Z,100160.50
2023-11-19T07:13:40.943Z,100166.56
2023-11-19T07:16:11.082Z,100177.69
2023-11-19T07:18:39.044Z,100180.31
2023-11-19T07:21:11.529Z,100175.13
2023-11-19T07:23:39.188Z,100171.66
2023-11-19T07:26:09.557Z,100163.09
2023-11-19T07:28:37.291Z,100164.81
2023-11-19T07:31:05.331Z,100161.41
2023-11-19T07:33:32.920Z,100153.63
2023-11-19T07:36:00.419Z,100155.34
2023-11-19T07:38:29.277Z,100172.50
2023-11-19T07:40:57.471Z,100155.19
2023-11-19T07:43:25.461Z,100161.19
2023-11-19T07:45:52.891Z,100162.13
2023-11-19T07:48:24.357Z,100160.38
2023-11-19T07:50:52.166Z,100161.34
2023-11-19T07:53:19.905Z,100160.44
2023-11-19T07:55:48.730Z,100157.03
2023-11-19T07:58:16.153Z,100156.91
2023-11-19T08:00:43.633Z,100163.78
2023-11-19T08:03:11.274Z,100153.38
2023-11-19T08:05:39.018Z,100151.81
2023-11-19T08:08:06.537Z,100155.34
2023-11-19T08:10:43.624Z,100172.41
2023-11-19T08:13:12.435Z,100162.28
2023-11-19T08:15:39.934Z,100146.66
2023-11-19T08:18:08.347Z,100134.47
2023-11-19T08:20:35.904Z,100140.56
2023-11-19T08:23:04.797Z,100144.69
2023-11-19T08:25:32.272Z,100151.06
2023-11-19T08:27:59.729Z,100124.91
2023-11-19T08:30:28.981Z,100125.78
2023-11-19T08:32:56.561Z,100124.81
2023-11-19T08:35:26.497Z,100126.69
2023-11-19T08:38:01.293Z,100117.69
2023-11-19T08:41:00.827Z,100108.81
2023-11-19T08:43:35.014Z,100107.13
2023-11-19T08:46:17.842Z,100109.66
2023-11-19T08:48:50.784Z,100111.59
2023-11-19T08:51:18.992Z,100105.56
2023-11-19T08:53:49.465Z,100113.22
2023-11-19T08:56:21.830Z,100104.59
2023-11-19T08:58:54.994Z,100113.84
2023-11-19T09:01:26.124Z,100107.31
2023-11-19T09:03:59.777Z,100101.97
2023-11-19T09:06:37.986Z,100095.75
2023-11-19T09:09:07.720Z,100107.84
2023-11-19T09:11:37.811Z,100121.81
2023-11-19T09:14:07.901Z,100121.38
2023-11-19T09:16:48.014Z,100116.91
2023-11-19T09:19:22.026Z,100129.88
2023-11-19T09:21:52.847Z,100104.75
2023-11-19T09:24:26.413Z,100111.66
2023-11-19T09:26:57.484Z,100124.41
2023-11-19T09:29:35.087Z,100118.59
2023-11-19T09:32:10.198Z,100101.22
2023-11-19T09:34:42.771Z,100101.16
2023-11-19T09:39:47.227Z,100092.88
2023-11-19T09:42:19.238Z,100107.66
2023-11-19T09:44:50.119Z,100096.19
2023-11-19T09:47:25.289Z,100079.59
2023-11-19T09:49:57.897Z,100090.63
2023-11-19T09:52:30.437Z,100081.06
2023-11-19T09:55:01.571Z,100072.81
2023-11-19T09:57:39.045Z,100074.25
2023-11-19T10:00:11.741Z,100078.72
2023-11-19T10:02:48.169Z,100087.09
2023-11-19T10:05:17.229Z,100081.47
2023-11-19T10:07:46.911Z,100083.69
2023-11-19T10:10:19.730Z,100080.63
2023-11-19T10:15:30.279Z,100066.69
2023-11-19T10:18:02.295Z,100076.25
2023-11-19T10:23:50.132Z,100076.19
2023-11-19T10:26:52.095Z,100075.88
2023-11-19T10:29:20.479Z,100077.56
2023-11-19T10:32:24.180Z,100068.50
2023-11-19T10:35:10.911Z,100057.25
2023-11-19T10:37:40.719Z,100052.59
2023-11-19T10:40:13.390Z,100045.81
2023-11-19T10:42:44.199Z,100054.34
2023-11-19T10:45:25.161Z,100050.66
2023-11-19T10:47:55.172Z,100045.34
2023-11-19T10:50:26.497Z,100036.16
2023-11-19T10:53:00.072Z,100046.78
2023-11-19T10:55:31.782Z,100052.00
2023-11-19T10:58:03.473Z,100045.97
2023-11-19T11:00:36.063Z,100043.41
2023-11-19T11:03:08.457Z,100045.16
2023-11-19T11:05:40.201Z,100048.25
2023-11-19T11:08:13.178Z,100053.16
2023-11-19T11:13:18.757Z,100042.94
2023-11-19T11:15:51.996Z,100031.44
2023-11-19T11:18:25.779Z,100037.56
2023-11-19T11:21:06.594Z,100041.81
2023-11-19T11:24:17.604Z,100030.75
2023-11-19T11:27:08.591Z,100031.16
2023-11-19T11:29:43.966Z,100040.09
2023-11-19T11:32:28.932Z,100030.72
2023-11-19T11:35:15.141Z,100030.06
2023-11-19T11:37:49.381Z,100022.25
2023-11-19T11:40:20.670Z,100029.06
2023-11-19T11:42:49.910Z,100024.75
2023-11-19T11:48:13.555Z,100036.69
2023-11-19T11:50:53.104Z,100040.28
2023-11-19T11:53:28.860Z,100036.19
2023-11-19T11:56:00.654Z,100030.94
2023-11-19T11:58:33.550Z,100039.13
2023-11-19T12:01:07.113Z,100027.16
2023-11-19T12:03:41.958Z,100025.13
2023-11-19T12:06:17.689Z,100028.44
2023-11-19T12:08:53.836Z,100031.38
2023-11-19T12:11:22.796Z,100036.03
2023-11-19T12:13:59.960Z,100035.00
2023-11-19T12:16:30.752Z,100037.19
2023-11-19T12:19:05.740Z,100037.09
2023-11-19T12:21:34.633Z,100033.78
2023-11-19T12:24:09.282Z,100029.31
2023-11-19T12:26:39.727Z,100025.69
2023-11-19T12:29:10.987Z,100020.84
2023-11-19T12:31:39.680Z,100027.69
2023-11-19T12:34:13.898Z,100024.13
2023-11-19T12:36:44.371Z,100027.63
2023-11-19T12:39:20.596Z,100019.84
2023-11-19T12:41:58.335Z,100022.06
2023-11-19T12:44:26.529Z,100018.16
2023-11-19T12:47:12.776Z,100022.91
2023-11-19T12:52:24.920Z,100034.03
2023-11-19T12:55:03.443Z,100036.78
2023-11-19T12:57:43.708Z,100053.06
2023-11-19T13:00:23.370Z,100042.47
2023-11-19T13:03:09.479Z,100037.53
2023-11-19T13:05:43.731Z,100029.13
2023-11-19T13:08:13.949Z,100023.41
2023-11-19T13:11:02.706Z,100023.50
2023-11-19T13:13:33.236Z,100032.53
2023-11-19T13:16:09.524Z,100012.44
2023-11-19T13:18:45.336Z,100027.00
2023-11-19T13:21:17.854Z,100035.75
2023-11-19T13:23:47.145Z,100025.38
2023-11-19T13:26:20.253Z,100024.63
2023-11-19T13:28:51.473Z,100021.16
2023-11-19T13:31:22.683Z,100028.81
2023-11-19T13:33:55.702Z,100020.28
2023-11-19T13:36:30.176Z,100014.28
2023-11-19T13:39:01.261Z,100012.66
2023-11-19T13:41:31.814Z,100021.09
2023-11-19T13:46:58.178Z,100023.59
2023-11-19T13:49:28.586Z,100027.59
2023-11-19T13:52:03.027Z,100027.72
2023-11-19T13:54:32.286Z,100029.84
2023-11-19T13:57:05.433Z,100030.81
2023-11-19T13:59:41.877Z,100032.47
2023-11-19T14:02:17.414Z,100026.59
2023-11-19T14:04:45.668Z,100025.84
2023-11-19T14:07:17.540Z,100033.75
2023-11-19T14:09:46.893Z,100040.13
2023-11-19T14:12:20.667Z,100043.59
2023-11-19T14:14:54.359Z,100032.75
2023-11-19T14:17:26.342Z,100036.16
2023-11-19T14:19:59.169Z,100035.28
2023-11-19T14:22:28.734Z,100039.53
2023-11-19T14:24:57.007Z,100045.66
2023-11-19T14:27:25.155Z,100038.63
2023-11-19T14:29:53.575Z,100045.13
2023-11-19T14:32:21.012Z,100038.28
2023-11-19T14:34:49.806Z,100039.94
2023-11-19T14:37:17.292Z,100039.31
2023-11-19T14:39:46.173Z,100037.44
2023-11-19T14:42:15.363Z,100040.38
2023-11-19T14:44:42.801Z,100041.47
2023-11-19T14:47:11.405Z,100040.53
2023-11-19T14:49:39.058Z,100042.91
2023-11-19T14:54:39.413Z,100037.06
2023-11-19T14:57:09.066Z,100051.50
2023-11-19T14:59:36.598Z,100058.31
2023-11-19T15:02:04.317Z,100043.38
2023-11-19T15:04:32.002Z,100054.63
2023-11-19T15:07:00.081Z,100050.69
2023-11-19T15:09:28.928Z,100060.69
2023-11-19T15:11:56.426Z,100061.06
2023-11-19T15:14:23.838Z,100061.63
2023-11-19T15:16:52.685Z,100059.59
2023-11-19T15:19:21.396Z,100058.00
2023-11-19T15:21:49.024Z,100056.78
2023-11-19T15:24:16.482Z,100058.63
2023-11-19T15:26:45.297Z,100057.38
2023-11-19T15:29:13.138Z,100065.88
2023-11-19T15:31:40.720Z,100063.50
2023-11-19T15:34:08.353Z,100071.81
2023-11-19T15:36:36.992Z,100069.53
2023-11-19T15:39:05.622Z,100074.69
2023-11-19T15:41:34.131Z,100060.31
2023-11-19T15:44:05.030Z,100072.91
2023-11-19T15:46:33.334Z,100064.69
2023-11-19T15:49:01.361Z,100073.53
2023-11-19T15:51:28.845Z,100082.19
2023-11-19T15:53:56.250Z,100067.72
2023-11-19T15:56:23.853Z,100070.81
2023-11-19T15:58:51.500Z,100078.09
2023-11-19T16:01:20.703Z,100086.13
2023-11-19T16:06:19.214Z,100080.22
2023-11-19T16:08:46.711Z,100080.03
2023-11-19T16:11:14.863Z,100079.00
2023-11-19T16:13:42.431Z,100088.72
2023-11-19T16:16:11.579Z,100075.22
2023-11-19T16:18:40.780Z,100087.84
2023-11-19T16:21:09.380Z,100090.53
2023-11-19T16:23:36.968Z,100083.53
2023-11-19T16:26:06.181Z,100083.63
2023-11-19T16:28:36.127Z,100081.94
2023-11-19T16:31:03.671Z,100100.28
2023-11-19T16:33:31.626Z,100095.34
2023-11-19T16:36:00.483Z,100087.41
2023-11-19T16:38:28.090Z,100088.75
2023-11-19T16:40:55.717Z,100098.19
2023-11-19T16:43:24.714Z,100091.63
2023-11-19T16:45:52.249Z,100100.41
2023-11-19T16:48:19.802Z,100101.19
2023-11-19T16:51:04.400Z,100104.66
2023-11-19T16:53:33.640Z,100104.28
2023-11-19T16:56:01.150Z,100097.47
2023-11-19T16:58:28.662Z,100111.13
2023-11-19T17:00:56.064Z,100103.91
2023-11-19T17:03:23.725Z,100100.84
2023-11-19T17:05:51.384Z,100104.09
2023-11-19T17:08:18.876Z,100099.78
2023-11-19T17:10:48.076Z,100115.78
2023-11-19T17:13:15.824Z,100110.31
2023-11-19T17:15:43.293Z,100109.19
2023-11-19T17:18:11.295Z,100105.44
2023-11-19T17:20:39.988Z,100106.25
2023-11-19T17:23:07.621Z,100104.78
2023-11-19T17:25:35.239Z,100098.00
2023-11-19T17:28:08.225Z,100107.41
2023-11-19T17:30:35.893Z,100103.72
2023-11-19T17:33:06.062Z,100118.63
2023-11-19T17:35:34.009Z,100104.94
2023-11-19T17:38:01.794Z,100111.22
2023-11-19T17:40:29.535Z,100104.50
2023-11-19T17:42:57.187Z,100119.34
2023-11-19T17:45:25.998Z,100125.69
2023-11-19T17:47:54.122Z,100156.63
2023-11-19T17:52:52.337Z,100150.81
2023-11-19T17:55:19.764Z,100139.72
2023-11-19T17:57:47.789Z,100133.22
2023-11-19T18:00:17.119Z,100123.00
2023-11-19T18:02:49.578Z,100129.59
2023-11-19T18:05:18.480Z,100138.22
2023-11-19T18:07:46.294Z,100137.00
2023-11-19T18:10:13.832Z,100145.88
2023-11-19T18:12:41.688Z,100153.25
2023-11-19T18:15:13.185Z,100147.25
2023-11-19T18:17:42.969Z,100132.03
2023-11-19T18:20:14.622Z,100136.63
2023-11-19T18:22:43.278Z,100131.41
2023-11-19T18:25:12.080Z,100130.88
2023-11-19T18:27:40.124Z,100118.31
2023-11-19T18:30:10.884Z,100127.25
2023-11-19T18:32:38.715Z,100133.44
2023-11-19T18:35:07.330Z,100123.34
2023-11-19T18:37:36.107Z,100126.13
2023-11-19T18:40:03.588Z,100128.25
2023-11-19T18:42:31.320Z,100136.81
2023-11-19T18:44:58.763Z,100122.53
2023-11-19T18:47:26.253Z,100123.09
2023-11-19T18:49:54.595Z,100133.47
2023-11-19T18:52:22.039Z,100130.53
2023-11-19T18:54:50.889Z,100125.50
2023-11-19T18:57:18.310Z,100138.44
2023-11-19T18:59:46.067Z,100134.09
2023-11-19T19:02:14.593Z,100147.16
2023-11-19T19:04:42.251Z,100136.94
2023-11-19T19:07:09.832Z,100129.28
2023-11-19T19:09:37.435Z,100136.53
2023-11-19T19:12:06.895Z,100138.72
2023-11-19T19:14:34.471Z,100142.66
2023-11-19T19:17:01.961Z,100139.69
2023-11-19T19:19:30.466Z,100140.03
2023-11-19T19:21:58.561Z,100145.19
2023-11-19T19:24:25.992Z,100128.28
2023-11-19T19:26:53.512Z,100123.38
2023-11-19T19:29:24.187Z,100127.38
2023-11-19T19:31:51.974Z,100126.47
2023-11-19T19:34:20.372Z,100133.63
2023-11-19T19:36:47.878Z,100144.25
2023-11-19T19:39:16.193Z,100135.25
2023-11-19T19:41:43.793Z,100138.88
2023-11-19T19:44:16.366Z,100141.75
2023-11-19T19:46:45.181Z,100139.38
2023-11-19T19:49:12.645Z,100142.69
2023-11-19T19:51:40.120Z,100136.22
2023-11-19T19:54:11.978Z,100137.59
2023-11-19T19:56:43.613Z,100139.91
2023-11-19T19:59:16.196Z,100142.38
2023-11-19T20:01:45.610Z,100138.28
2023-11-19T20:04:13.659Z,100135.31
2023-11-19T20:06:41.577Z,100132.91
2023-11-19T20:09:09.199Z,100138.34
2023-11-19T20:11:36.692Z,100148.34
2023-11-19T20:14:04.688Z,100141.72
2023-11-19T20:16:32.111Z,100134.41
2023-11-19T20:19:00.888Z,100137.13
2023-11-19T20:21:28.430Z,100139.41
2023-11-19T20:23:56.098Z,100143.75
2023-11-19T20:26:23.699Z,100138.94
2023-11-19T20:29:09.519Z,100141.66
2023-11-19T20:31:42.588Z,100137.41
2023-11-19T20:34:11.525Z,100140.81
2023-11-19T20:36:39.412Z,100145.41
2023-11-19T20:39:07.269Z,100150.19
2023-11-19T20:41:34.826Z,100146.09
2023-11-19T20:44:02.428Z,100153.22
2023-11-19T20:46:30.549Z,100148.41
2023-11-19T20:48:58.180Z,100143.22
2023-11-19T20:51:31.749Z,100158.16
2023-11-19T20:54:00.563Z,100156.38
2023-11-19T20:56:28.289Z,100162.94
2023-11-19T20:58:56.195Z,100152.44
2023-11-19T21:01:23.861Z,100163.50
2023-11-19T21:03:51.395Z,100157.09
2023-11-19T21:06:20.773Z,100155.84
2023-11-19T21:08:49.617Z,100156.31
2023-11-19T21:11:17.109Z,100154.59
2023-11-19T21:13:45.066Z,100159.53
2023-11-19T21:16:12.565Z,100159.88
2023-11-19T21:18:40.164Z,100165.84
2023-11-19T21:21:08.079Z,100158.31
2023-11-19T21:23:35.628Z,100159.94
2023-11-19T21:26:04.997Z,100156.75
2023-11-19T21:28:34.306Z,100149.19
2023-11-19T21:31:01.807Z,100147.84
2023-11-19T21:33:29.634Z,100156.06
2023-11-19T21:35:59.462Z,100154.19
2023-11-19T21:38:28.615Z,100151.59
2023-11-19T21:40:56.551Z,100152.50
2023-11-19T21:43:25.446Z,100151.72
2023-11-19T21:45:52.930Z,100152.50
2023-11-19T21:48:20.540Z,100152.09
2023-11-19T21:50:48.171Z,100158.75
2023-11-19T21:53:16.783Z,100154.25
2023-11-19T21:55:44.808Z,100156.06
2023-11-19T21:58:12.336Z,100151.31
2023-11-19T22:00:41.473Z,100149.69
2023-11-19T22:03:09.688Z,100156.31
2023-11-19T22:05:37.437Z,100160.06
2023-11-19T22:10:35.793Z,100152.75
2023-11-19T22:13:04.377Z,100147.31
2023-11-19T22:15:32.681Z,100143.25
2023-11-19T22:18:01.579Z,100148.09
2023-11-19T22:20:29.404Z,100151.97
2023-11-19T22:22:57.025Z,100147.56
2023-11-19T22:25:26.180Z,100155.03
2023-11-19T22:27:54.953Z,100152.94
2023-11-19T22:30:22.696Z,100155.88
2023-11-19T22:32:50.211Z,100151.31
2023-11-19T22:35:19.210Z,100150.34
2023-11-19T22:37:46.733Z,100147.63
2023-11-19T22:40:14.977Z,100149.81
2023-11-19T22:42:42.878Z,100150.94
2023-11-19T22:45:11.041Z,100143.84
2023-11-19T22:47:38.633Z,100147.56
2023-11-19T22:50:07.982Z,100148.41
2023-11-19T22:52:37.072Z,100161.44
2023-11-19T22:55:06.731Z,100145.34
2023-11-19T22:57:34.348Z,100150.41
2023-11-19T23:00:04.087Z,100164.66
2023-11-19T23:02:31.797Z,100158.38
2023-11-19T23:04:59.691Z,100146.13
2023-11-19T23:07:27.245Z,100141.25
2023-11-19T23:12:27.120Z,100138.63
2023-11-19T23:14:57.843Z,100133.69
2023-11-19T23:17:27.868Z,100146.25
2023-11-19T23:20:03.482Z,100143.16
2023-11-19T23:22:37.373Z,100139.22
2023-11-19T23:25:07.604Z,100134.59
2023-11-19T23:27:35.450Z,100138.13
2023-11-19T23:30:04.193Z,100141.06
2023-11-19T23:32:32.119Z,100142.13
2023-11-19T23:34:59.716Z,100143.22
2023-11-19T23:37:27.269Z,100142.31
2023-11-19T23:39:54.911Z,100138.34
2023-11-19T23:42:24.060Z,100143.16
2023-11-19T23:44:51.592Z,100141.34
2023-11-19T23:47:20.503Z,100138.09
2023-11-19T23:49:49.056Z,100133.16
2023-11-19T23:52:17.023Z,100136.81
2023-11-19T23:57:13.973Z,100132.97
2023-11-19T23:59:43.661Z,100134.16
